Terminal Aerodrome Forecast
Issued by NWS Melbourne, FL

Home | Current Version | Previous Version | Text Only | Print | Product List | Glossary On
Versions: 1 2 3 4 5 6 7 8 9 10 11 12
000
FTUS42 KMLB 282341
TAFMLB
TAF
KMLB 282341Z 2900/2924 12008KT P6SM FEW050
     FM290400 VRB03KT P6SM SKC
     FM291700 10009KT P6SM SCT040=

USA.gov is the U.S. government's official web portal to all federal, state and local government web resources and services.